Dahlgren, Illinois
Current Conditions -  °F | °C
As of 8:35 PM on Friday 28 Nov 2014 (Local Time) from KMVN Reporting Station
Clear Clear  
Wind Chill: 35°   Ceiling: Unl
Heat Index: 39°   Visibility: 10mi
Dew Point: 27°   Wind: 6mph
Humidity: 61%   Direction: 170°S
Pressure: 30"   Gusts: NA
Location:  38.2°N, 88.68°W
Report Text: KMVN 290235Z AUTO 17005KT 10SM CLR 04/M03 A3000 RMK AO1
Loading
Personal Weather Stations






























Interactive Weather Map New forecast layout! Learn more

10-Day Weather Forecast

Advertisements
Track Severe Weather on mobile